Lindberg Crosby — WCO9247 — position and weather

sailwx.info

Track history (hours):
 
Tides and Currents Weather Stations Pressure Air Temp Water Temp Dewpoint Dewpoint Depression Visibility Wind Speed Wind Dir Waves Ship Positions

Lindberg Crosby

Owner: CROSBY, KURT, GOLDEN MEADOW, LA. More information available from US FCC via Universal Licensing System and Coast Guard Vessel Documentation Center.

Last reported at 2017-Sep-20 06:26 UTC. Time now 2017-Sep-21 03:19 UTC.
Position N 30°04' W 093°41'.

Length 18 m; draft 2.6 m.

Type: Tug. MMSI: 366978460.

Date/timePositionNaut miles runAvg speedWind from/ knotsBaromVisibWave heightAir tempDewpointWater temp
2017-Sep-20 06:26N 30°04' W 093°41'3 7.6
2017-Sep-20 06:00N 30°04' W 093°38'3 7.0
2017-Sep-20 05:30N 30°04' W 093°34'3 6.4
2017-Sep-20 05:00N 30°04' W 093°30'3 6.3
2017-Sep-20 04:30N 30°04' W 093°26'3 6.3
2017-Sep-20 04:00N 30°04' W 093°23'3 5.4
2017-Sep-20 03:30N 30°05' W 093°20'3 6.7
2017-Sep-20 03:00N 30°08' W 093°20'3 6.6
2017-Sep-20 02:30N 30°11' W 093°18'2 3.0
2017-Sep-20 02:00N 30°13' W 093°19'1 1.8
2017-Sep-20 01:30N 30°12' W 093°19'0 0.1
2017-Sep-20 01:00N 30°12' W 093°19'0 0.0
2017-Sep-20 00:29N 30°12' W 093°19'0 0.0
2017-Sep-19 23:58N 30°12' W 093°19'0 0.0
2017-Sep-19 23:28N 30°12' W 093°19'0 0.0
2017-Sep-19 22:56N 30°12' W 093°19'0 0.0
2017-Sep-19 22:28N 30°12' W 093°19'0 0.0
2017-Sep-19 21:49N 30°12' W 093°19'0 0.0
2017-Sep-19 21:29N 30°12' W 093°19'0 0.0
2017-Sep-19 20:56N 30°12' W 093°19'0 0.0
2017-Sep-19 20:30N 30°12' W 093°19'0 0.0
2017-Sep-19 20:00N 30°12' W 093°19'0 0.0
2017-Sep-19 18:36N 30°12' W 093°19'0 0.0
2017-Sep-19 18:29N 30°12' W 093°19'0 0.0
2017-Sep-19 17:58N 30°12' W 093°19'0 0.0
2017-Sep-19 17:26N 30°12' W 093°19'0 0.0
2017-Sep-19 14:51N 30°12' W 093°19'0 0.0
2017-Sep-19 14:20N 30°12' W 093°19'0 0.0
2017-Sep-19 13:57N 30°12' W 093°19'0 0.0
2017-Sep-19 13:30N 30°12' W 093°19'0 0.0
2017-Sep-19 13:00N 30°12' W 093°19'0 0.0
2017-Sep-19 06:43N 30°12' W 093°19'0 0.0
2017-Sep-19 06:30N 30°12' W 093°19'0 0.0
2017-Sep-19 05:57N 30°12' W 093°19'0 0.0
2017-Sep-19 05:30N 30°12' W 093°19'0 0.0
2017-Sep-19 03:04N 30°12' W 093°19'0 0.0
2017-Sep-19 02:58N 30°12' W 093°19'0 0.0
2017-Sep-19 02:14N 30°12' W 093°19'0 0.0
2017-Sep-19 01:45N 30°12' W 093°19'0 0.0
2017-Sep-19 01:29N 30°12' W 093°19'0 0.0
2017-Sep-19 00:59N 30°12' W 093°19'0 0.0
2017-Sep-19 00:30N 30°12' W 093°19'0 0.0
2017-Sep-19 00:00N 30°12' W 093°19'0 0.0
2017-Sep-18 23:27N 30°12' W 093°19'0 0.0
2017-Sep-18 22:59N 30°12' W 093°19'0 0.0
2017-Sep-18 22:20N 30°12' W 093°19'0 0.0
2017-Sep-18 22:00N 30°12' W 093°19'0 0.0
2017-Sep-18 21:29N 30°12' W 093°19'0 0.7
2017-Sep-18 21:00N 30°12' W 093°19'1 1.1
2017-Sep-18 20:30N 30°12' W 093°18'1 2.3
2017-Sep-18 20:00N 30°11' W 093°18'3 6.3
2017-Sep-18 19:30N 30°08' W 093°20'3 6.5
2017-Sep-18 19:00N 30°05' W 093°20'3 5.7
2017-Sep-18 18:30N 30°04' W 093°22'3 6.4
2017-Sep-18 18:00N 30°04' W 093°26'3 6.1
2017-Sep-18 17:30N 30°04' W 093°30'3 6.2
2017-Sep-18 17:00N 30°04' W 093°33'77 4.8
2017-Sep-18 01:10N 29°32' W 094°53'1 6.6
2017-Sep-18 01:00N 29°32' W 094°54'3 6.5
2017-Sep-18 00:30N 29°35' W 094°56'3 6.5
2017-Sep-18 00:00N 29°38' W 094°58'3 6.8
2017-Sep-17 23:30N 29°41' W 094°59'3 6.3
2017-Sep-17 22:57N 29°44' W 095°02'  
2017-Sep-15 17:50N 29°43' W 095°01'2 6.0
2017-Sep-15 17:30N 29°42' W 094°60'4 7.0
2017-Sep-15 17:00N 29°39' W 094°58'4 7.7
2017-Sep-15 16:30N 29°35' W 094°56'71 5.9
2017-Sep-15 04:29N 30°04' W 093°41'4 7.5
2017-Sep-15 04:00N 30°04' W 093°37'3 6.7
2017-Sep-15 03:30N 30°04' W 093°33'3 6.5
2017-Sep-15 03:00N 30°04' W 093°29'3 6.4
2017-Sep-15 02:30N 30°04' W 093°25'3 6.3
2017-Sep-15 02:00N 30°04' W 093°22'2 3.5
2017-Sep-15 01:30N 30°05' W 093°20'3 6.0
2017-Sep-15 01:00N 30°08' W 093°20'4 7.3
2017-Sep-15 00:30N 30°11' W 093°18'1 2.9
2017-Sep-15 00:00N 30°13' W 093°19'1 1.7
2017-Sep-14 23:30N 30°12' W 093°19'0 0.1
2017-Sep-14 23:00N 30°12' W 093°19'0 0.0
2017-Sep-14 22:30N 30°12' W 093°19'0 0.0
2017-Sep-14 22:00N 30°12' W 093°19'0 0.0
2017-Sep-14 21:28N 30°12' W 093°19'0 0.0
2017-Sep-14 21:00N 30°12' W 093°19'0 0.0
2017-Sep-14 20:30N 30°12' W 093°19'0 0.0
2017-Sep-14 20:00N 30°12' W 093°19'0 0.0
2017-Sep-14 19:30N 30°12' W 093°19'0 0.0
2017-Sep-14 19:00N 30°12' W 093°19'0 0.0
2017-Sep-14 18:30N 30°12' W 093°19'0 0.0
2017-Sep-14 18:00N 30°12' W 093°19'0 0.0
2017-Sep-14 17:30N 30°12' W 093°19'0 0.0
2017-Sep-14 17:00N 30°12' W 093°19'0 0.0
2017-Sep-14 16:30N 30°12' W 093°19'0 0.0
2017-Sep-14 16:00N 30°12' W 093°19'0 0.0
2017-Sep-14 15:30N 30°12' W 093°19'0 0.0
2017-Sep-14 15:00N 30°12' W 093°19'0 0.0
2017-Sep-14 14:30N 30°12' W 093°19'0 0.0
2017-Sep-14 14:00N 30°12' W 093°19'0 0.0
2017-Sep-14 13:30N 30°12' W 093°19'0 0.0
2017-Sep-14 12:56N 30°12' W 093°19'0 0.0
2017-Sep-14 12:30N 30°12' W 093°19'0 0.0
2017-Sep-14 12:00N 30°12' W 093°19'0 0.0
2017-Sep-14 11:30N 30°12' W 093°19'0 0.0
2017-Sep-14 11:00N 30°12' W 093°19'0 0.0
2017-Sep-14 10:30N 30°12' W 093°19'0 0.0
2017-Sep-14 10:00N 30°12' W 093°19'0 0.0
2017-Sep-14 09:29N 30°12' W 093°19'0 0.0
2017-Sep-14 09:00N 30°12' W 093°19'0 0.0
2017-Sep-14 08:30N 30°12' W 093°19'0 0.0
2017-Sep-14 08:00N 30°12' W 093°19'0 0.0
2017-Sep-14 07:30N 30°12' W 093°19'1 1.7
2017-Sep-14 07:00N 30°13' W 093°19'1 2.7
2017-Sep-14 06:30N 30°12' W 093°17'3 5.9
2017-Sep-14 06:00N 30°10' W 093°19'4 7.1
2017-Sep-14 05:30N 30°06' W 093°20'2 4.6
2017-Sep-14 05:00N 30°04' W 093°21'3 5.3
2017-Sep-14 04:30N 30°04' W 093°24'3 6.5
2017-Sep-14 04:00N 30°04' W 093°28'3 6.6
2017-Sep-14 03:30N 30°04' W 093°31'3 5.7
2017-Sep-14 03:00N 30°04' W 093°35'3 6.2
2017-Sep-14 02:29N 30°04' W 093°38'72 5.0
2017-Sep-13 12:02N 29°30' W 094°52'0 7.5
2017-Sep-13 11:59N 29°30' W 094°52'3 7.2
2017-Sep-13 11:30N 29°33' W 094°54'4 7.1
2017-Sep-13 11:00N 29°36' W 094°57'3 6.1
2017-Sep-13 10:30N 29°38' W 094°58'3 7.0
2017-Sep-13 10:00N 29°42' W 094°60'3 6.4
2017-Sep-13 09:29N 29°44' W 095°02'3 0.2
2017-Sep-12 13:34N 29°45' W 095°06'5 0.3
2017-Sep-11 20:18N 29°43' W 095°01'2 5.4
2017-Sep-11 20:00N 29°42' W 094°60'3 6.2
2017-Sep-11 19:28N 29°39' W 094°58'4 7.2
2017-Sep-11 18:57N 29°36' W 094°56'3 7.3
2017-Sep-11 18:30N 29°33' W 094°54'73 6.2
2017-Sep-11 06:37N 30°04' W 093°38'2 6.6
2017-Sep-11 06:19N 30°04' W 093°35'2 6.3
2017-Sep-11 05:56N 30°04' W 093°33'3 6.2
2017-Sep-11 05:29N 30°04' W 093°29'3 6.0
2017-Sep-11 05:00N 30°04' W 093°26'3 6.1
2017-Sep-11 04:28N 30°04' W 093°22'2 5.3
2017-Sep-11 04:00N 30°05' W 093°20'3 6.6
2017-Sep-11 03:29N 30°08' W 093°20'4 6.7
2017-Sep-11 02:55N 30°12' W 093°18'1 2.6
2017-Sep-11 02:30N 30°12' W 093°19'1 1.1
2017-Sep-11 01:57N 30°12' W 093°19'0 0.5
2017-Sep-11 01:30N 30°12' W 093°19'0 0.0
2017-Sep-11 01:00N 30°12' W 093°19'0 0.0
2017-Sep-11 00:30N 30°12' W 093°19'0 0.0
2017-Sep-11 00:00N 30°12' W 093°19'0 0.0
2017-Sep-10 23:30N 30°12' W 093°19'0 0.0
2017-Sep-10 23:00N 30°12' W 093°19'0 0.0
2017-Sep-10 22:30N 30°12' W 093°19'0 0.0
2017-Sep-10 21:59N 30°12' W 093°19'0 0.0
2017-Sep-10 21:30N 30°12' W 093°19'0 0.0
2017-Sep-10 21:00N 30°12' W 093°19'0 0.0
2017-Sep-10 20:30N 30°12' W 093°19'0 0.0
2017-Sep-10 20:00N 30°12' W 093°19'0 0.0
2017-Sep-10 19:30N 30°12' W 093°19'0 0.0
2017-Sep-10 18:57N 30°12' W 093°19'0 0.0
2017-Sep-10 18:30N 30°12' W 093°19'0 0.0
2017-Sep-10 17:59N 30°12' W 093°19'0 0.0
2017-Sep-10 17:30N 30°12' W 093°19'0 0.0
2017-Sep-10 17:00N 30°12' W 093°19'0 0.0
2017-Sep-10 16:30N 30°12' W 093°19'0 0.0
2017-Sep-10 16:00N 30°12' W 093°19'0 0.0
2017-Sep-10 15:26N 30°12' W 093°19'0 0.0
2017-Sep-10 15:00N 30°12' W 093°19'0 0.0
2017-Sep-10 14:00N 30°12' W 093°19'0 0.0
2017-Sep-10 12:50N 30°12' W 093°19'0 0.7
2017-Sep-10 12:30N 30°12' W 093°19'1 2.0
2017-Sep-10 11:57N 30°12' W 093°18'9 5.4
2017-Sep-10 10:21N 30°04' W 093°21'2 5.4
2017-Sep-10 10:00N 30°04' W 093°23'2 4.1
2017-Sep-10 09:30N 30°04' W 093°25'3 5.6
2017-Sep-10 09:00N 30°04' W 093°28'3 6.4
2017-Sep-10 08:30N 30°04' W 093°32'2 3.7
2017-Sep-10 07:52N 30°04' W 093°35'1 3.3
2017-Sep-10 07:29N 30°03' W 093°36'0 0.2
2017-Sep-10 06:44N 30°03' W 093°36'1 5.0
2017-Sep-10 06:30N 30°04' W 093°38'  
Track history (hours):
 
Tides and Currents Weather Stations Pressure Air Temp Water Temp Dewpoint Dewpoint Depression Visibility Wind Speed Wind Dir Waves Ship Positions

Lindberg Crosby

Owner: CROSBY, KURT, GOLDEN MEADOW, LA. More information available from US FCC via Universal Licensing System and Coast Guard Vessel Documentation Center.

Last reported at 2017-Sep-20 06:26 UTC. Time now 2017-Sep-21 03:19 UTC.
Position N 30°04' W 093°41'.

Length 18 m; draft 2.6 m.

Type: Tug. MMSI: 366978460.

Date/timePositionNaut miles runAvg speedWind from/ knotsBaromVisibWave heightAir tempDewpointWater temp
2017-Sep-20 06:26N 30°04' W 093°41'3 7.6
2017-Sep-20 06:00N 30°04' W 093°38'3 7.0
2017-Sep-20 05:30N 30°04' W 093°34'3 6.4
2017-Sep-20 05:00N 30°04' W 093°30'3 6.3
2017-Sep-20 04:30N 30°04' W 093°26'3 6.3
2017-Sep-20 04:00N 30°04' W 093°23'3 5.4
2017-Sep-20 03:30N 30°05' W 093°20'3 6.7
2017-Sep-20 03:00N 30°08' W 093°20'3 6.6
2017-Sep-20 02:30N 30°11' W 093°18'2 3.0
2017-Sep-20 02:00N 30°13' W 093°19'1 1.8
2017-Sep-20 01:30N 30°12' W 093°19'0 0.1
2017-Sep-20 01:00N 30°12' W 093°19'0 0.0
2017-Sep-20 00:29N 30°12' W 093°19'0 0.0
2017-Sep-19 23:58N 30°12' W 093°19'0 0.0
2017-Sep-19 23:28N 30°12' W 093°19'0 0.0
2017-Sep-19 22:56N 30°12' W 093°19'0 0.0
2017-Sep-19 22:28N 30°12' W 093°19'0 0.0
2017-Sep-19 21:49N 30°12' W 093°19'0 0.0
2017-Sep-19 21:29N 30°12' W 093°19'0 0.0
2017-Sep-19 20:56N 30°12' W 093°19'0 0.0
2017-Sep-19 20:30N 30°12' W 093°19'0 0.0
2017-Sep-19 20:00N 30°12' W 093°19'0 0.0
2017-Sep-19 18:36N 30°12' W 093°19'0 0.0
2017-Sep-19 18:29N 30°12' W 093°19'0 0.0
2017-Sep-19 17:58N 30°12' W 093°19'0 0.0
2017-Sep-19 17:26N 30°12' W 093°19'0 0.0
2017-Sep-19 14:51N 30°12' W 093°19'0 0.0
2017-Sep-19 14:20N 30°12' W 093°19'0 0.0
2017-Sep-19 13:57N 30°12' W 093°19'0 0.0
2017-Sep-19 13:30N 30°12' W 093°19'0 0.0
2017-Sep-19 13:00N 30°12' W 093°19'0 0.0
2017-Sep-19 06:43N 30°12' W 093°19'0 0.0
2017-Sep-19 06:30N 30°12' W 093°19'0 0.0
2017-Sep-19 05:57N 30°12' W 093°19'0 0.0
2017-Sep-19 05:30N 30°12' W 093°19'0 0.0
2017-Sep-19 03:04N 30°12' W 093°19'0 0.0
2017-Sep-19 02:58N 30°12' W 093°19'0 0.0
2017-Sep-19 02:14N 30°12' W 093°19'0 0.0
2017-Sep-19 01:45N 30°12' W 093°19'0 0.0
2017-Sep-19 01:29N 30°12' W 093°19'0 0.0
2017-Sep-19 00:59N 30°12' W 093°19'0 0.0
2017-Sep-19 00:30N 30°12' W 093°19'0 0.0
2017-Sep-19 00:00N 30°12' W 093°19'0 0.0
2017-Sep-18 23:27N 30°12' W 093°19'0 0.0
2017-Sep-18 22:59N 30°12' W 093°19'0 0.0
2017-Sep-18 22:20N 30°12' W 093°19'0 0.0
2017-Sep-18 22:00N 30°12' W 093°19'0 0.0
2017-Sep-18 21:29N 30°12' W 093°19'0 0.7
2017-Sep-18 21:00N 30°12' W 093°19'1 1.1
2017-Sep-18 20:30N 30°12' W 093°18'1 2.3
2017-Sep-18 20:00N 30°11' W 093°18'3 6.3
2017-Sep-18 19:30N 30°08' W 093°20'3 6.5
2017-Sep-18 19:00N 30°05' W 093°20'3 5.7
2017-Sep-18 18:30N 30°04' W 093°22'3 6.4
2017-Sep-18 18:00N 30°04' W 093°26'3 6.1
2017-Sep-18 17:30N 30°04' W 093°30'3 6.2
2017-Sep-18 17:00N 30°04' W 093°33'77 4.8
2017-Sep-18 01:10N 29°32' W 094°53'1 6.6
2017-Sep-18 01:00N 29°32' W 094°54'3 6.5
2017-Sep-18 00:30N 29°35' W 094°56'3 6.5
2017-Sep-18 00:00N 29°38' W 094°58'3 6.8
2017-Sep-17 23:30N 29°41' W 094°59'3 6.3
2017-Sep-17 22:57N 29°44' W 095°02'  
2017-Sep-15 17:50N 29°43' W 095°01'2 6.0
2017-Sep-15 17:30N 29°42' W 094°60'4 7.0
2017-Sep-15 17:00N 29°39' W 094°58'4 7.7
2017-Sep-15 16:30N 29°35' W 094°56'71 5.9
2017-Sep-15 04:29N 30°04' W 093°41'4 7.5
2017-Sep-15 04:00N 30°04' W 093°37'3 6.7
2017-Sep-15 03:30N 30°04' W 093°33'3 6.5
2017-Sep-15 03:00N 30°04' W 093°29'3 6.4
2017-Sep-15 02:30N 30°04' W 093°25'3 6.3
2017-Sep-15 02:00N 30°04' W 093°22'2 3.5
2017-Sep-15 01:30N 30°05' W 093°20'3 6.0
2017-Sep-15 01:00N 30°08' W 093°20'4 7.3
2017-Sep-15 00:30N 30°11' W 093°18'1 2.9
2017-Sep-15 00:00N 30°13' W 093°19'1 1.7
2017-Sep-14 23:30N 30°12' W 093°19'0 0.1
2017-Sep-14 23:00N 30°12' W 093°19'0 0.0
2017-Sep-14 22:30N 30°12' W 093°19'0 0.0
2017-Sep-14 22:00N 30°12' W 093°19'0 0.0
2017-Sep-14 21:28N 30°12' W 093°19'0 0.0
2017-Sep-14 21:00N 30°12' W 093°19'0 0.0
2017-Sep-14 20:30N 30°12' W 093°19'0 0.0
2017-Sep-14 20:00N 30°12' W 093°19'0 0.0
2017-Sep-14 19:30N 30°12' W 093°19'0 0.0
2017-Sep-14 19:00N 30°12' W 093°19'0 0.0
2017-Sep-14 18:30N 30°12' W 093°19'0 0.0
2017-Sep-14 18:00N 30°12' W 093°19'0 0.0
2017-Sep-14 17:30N 30°12' W 093°19'0 0.0
2017-Sep-14 17:00N 30°12' W 093°19'0 0.0
2017-Sep-14 16:30N 30°12' W 093°19'0 0.0
2017-Sep-14 16:00N 30°12' W 093°19'0 0.0
2017-Sep-14 15:30N 30°12' W 093°19'0 0.0
2017-Sep-14 15:00N 30°12' W 093°19'0 0.0
2017-Sep-14 14:30N 30°12' W 093°19'0 0.0
2017-Sep-14 14:00N 30°12' W 093°19'0 0.0
2017-Sep-14 13:30N 30°12' W 093°19'0 0.0
2017-Sep-14 12:56N 30°12' W 093°19'0 0.0
2017-Sep-14 12:30N 30°12' W 093°19'0 0.0
2017-Sep-14 12:00N 30°12' W 093°19'0 0.0
2017-Sep-14 11:30N 30°12' W 093°19'0 0.0
2017-Sep-14 11:00N 30°12' W 093°19'0 0.0
2017-Sep-14 10:30N 30°12' W 093°19'0 0.0
2017-Sep-14 10:00N 30°12' W 093°19'0 0.0
2017-Sep-14 09:29N 30°12' W 093°19'0 0.0
2017-Sep-14 09:00N 30°12' W 093°19'0 0.0
2017-Sep-14 08:30N 30°12' W 093°19'0 0.0
2017-Sep-14 08:00N 30°12' W 093°19'0 0.0
2017-Sep-14 07:30N 30°12' W 093°19'1 1.7
2017-Sep-14 07:00N 30°13' W 093°19'1 2.7
2017-Sep-14 06:30N 30°12' W 093°17'3 5.9
2017-Sep-14 06:00N 30°10' W 093°19'4 7.1
2017-Sep-14 05:30N 30°06' W 093°20'2 4.6
2017-Sep-14 05:00N 30°04' W 093°21'3 5.3
2017-Sep-14 04:30N 30°04' W 093°24'3 6.5
2017-Sep-14 04:00N 30°04' W 093°28'3 6.6
2017-Sep-14 03:30N 30°04' W 093°31'3 5.7
2017-Sep-14 03:00N 30°04' W 093°35'3 6.2
2017-Sep-14 02:29N 30°04' W 093°38'72 5.0
2017-Sep-13 12:02N 29°30' W 094°52'0 7.5
2017-Sep-13 11:59N 29°30' W 094°52'3 7.2
2017-Sep-13 11:30N 29°33' W 094°54'4 7.1
2017-Sep-13 11:00N 29°36' W 094°57'3 6.1
2017-Sep-13 10:30N 29°38' W 094°58'3 7.0
2017-Sep-13 10:00N 29°42' W 094°60'3 6.4
2017-Sep-13 09:29N 29°44' W 095°02'3 0.2
2017-Sep-12 13:34N 29°45' W 095°06'5 0.3
2017-Sep-11 20:18N 29°43' W 095°01'2 5.4
2017-Sep-11 20:00N 29°42' W 094°60'3 6.2
2017-Sep-11 19:28N 29°39' W 094°58'4 7.2
2017-Sep-11 18:57N 29°36' W 094°56'3 7.3
2017-Sep-11 18:30N 29°33' W 094°54'73 6.2
2017-Sep-11 06:37N 30°04' W 093°38'2 6.6
2017-Sep-11 06:19N 30°04' W 093°35'2 6.3
2017-Sep-11 05:56N 30°04' W 093°33'3 6.2
2017-Sep-11 05:29N 30°04' W 093°29'3 6.0
2017-Sep-11 05:00N 30°04' W 093°26'3 6.1
2017-Sep-11 04:28N 30°04' W 093°22'2 5.3
2017-Sep-11 04:00N 30°05' W 093°20'3 6.6
2017-Sep-11 03:29N 30°08' W 093°20'4 6.7
2017-Sep-11 02:55N 30°12' W 093°18'1 2.6
2017-Sep-11 02:30N 30°12' W 093°19'1 1.1
2017-Sep-11 01:57N 30°12' W 093°19'0 0.5
2017-Sep-11 01:30N 30°12' W 093°19'0 0.0
2017-Sep-11 01:00N 30°12' W 093°19'0 0.0
2017-Sep-11 00:30N 30°12' W 093°19'0 0.0
2017-Sep-11 00:00N 30°12' W 093°19'0 0.0
2017-Sep-10 23:30N 30°12' W 093°19'0 0.0
2017-Sep-10 23:00N 30°12' W 093°19'0 0.0
2017-Sep-10 22:30N 30°12' W 093°19'0 0.0
2017-Sep-10 21:59N 30°12' W 093°19'0 0.0
2017-Sep-10 21:30N 30°12' W 093°19'0 0.0
2017-Sep-10 21:00N 30°12' W 093°19'0 0.0
2017-Sep-10 20:30N 30°12' W 093°19'0 0.0
2017-Sep-10 20:00N 30°12' W 093°19'0 0.0
2017-Sep-10 19:30N 30°12' W 093°19'0 0.0
2017-Sep-10 18:57N 30°12' W 093°19'0 0.0
2017-Sep-10 18:30N 30°12' W 093°19'0 0.0
2017-Sep-10 17:59N 30°12' W 093°19'0 0.0
2017-Sep-10 17:30N 30°12' W 093°19'0 0.0
2017-Sep-10 17:00N 30°12' W 093°19'0 0.0
2017-Sep-10 16:30N 30°12' W 093°19'0 0.0
2017-Sep-10 16:00N 30°12' W 093°19'0 0.0
2017-Sep-10 15:26N 30°12' W 093°19'0 0.0
2017-Sep-10 15:00N 30°12' W 093°19'0 0.0
2017-Sep-10 14:00N 30°12' W 093°19'0 0.0
2017-Sep-10 12:50N 30°12' W 093°19'0 0.7
2017-Sep-10 12:30N 30°12' W 093°19'1 2.0
2017-Sep-10 11:57N 30°12' W 093°18'9 5.4
2017-Sep-10 10:21N 30°04' W 093°21'2 5.4
2017-Sep-10 10:00N 30°04' W 093°23'2 4.1
2017-Sep-10 09:30N 30°04' W 093°25'3 5.6
2017-Sep-10 09:00N 30°04' W 093°28'3 6.4
2017-Sep-10 08:30N 30°04' W 093°32'2 3.7
2017-Sep-10 07:52N 30°04' W 093°35'1 3.3
2017-Sep-10 07:29N 30°03' W 093°36'0 0.2
2017-Sep-10 06:44N 30°03' W 093°36'1 5.0
2017-Sep-10 06:30N 30°04' W 093°38'  

Dump ship's entire track history